Time;durP1;ratioP1;P1;durP2;ratioP2;P2;SDS_P1;SDS_P2;PMS_P1;PMS_P2;Temp;Humidity;BMP_temperature;BMP_pressure;BME280_temperature;BME280_humidity;BME280_pressure;Samples;Min_cycle;Max_cycle;Signal;HPM_P1;HPM_P2
2023/10/11 00:00:38;;;;;;;9.00;4.50;;;;;;;;;;5088030;28;20027;-64
2023/10/11 00:03:18;;;;;;;9.68;5.18;;;;;;;;;;5084322;28;20104;-65
2023/10/11 00:05:44;;;;;;;9.98;5.07;;;;;;;;;;5085752;28;20028;-64
2023/10/11 00:08:16;;;;;;;10.40;5.40;;;;;;;;;;5094123;28;20024;-64
2023/10/11 00:10:53;;;;;;;9.65;4.75;;;;;;;;;;5094150;28;20039;-65
2023/10/11 00:13:19;;;;;;;10.30;4.70;;;;;;;;;;5093500;28;20354;-64
2023/10/11 00:15:48;;;;;;;8.13;4.90;;;;;;;;;;5093595;28;20620;-65
2023/10/11 00:18:14;;;;;;;11.27;5.60;;;;;;;;;;5093642;28;20077;-64
2023/10/11 00:23:04;;;;;;;12.47;4.87;;;;;;;;;;5093457;28;20608;-64
2023/10/11 00:25:29;;;;;;;9.18;4.82;;;;;;;;;;5093689;28;20305;-65
2023/10/11 00:27:58;;;;;;;12.83;5.33;;;;;;;;;;5087733;28;20023;-64
2023/10/11 00:30:29;;;;;;;11.38;5.80;;;;;;;;;;5093247;28;20273;-64
2023/10/11 00:32:55;;;;;;;9.77;5.25;;;;;;;;;;5080116;28;20032;-64
2023/10/11 00:35:24;;;;;;;9.50;5.68;;;;;;;;;;5087001;28;20149;-64
2023/10/11 00:37:51;;;;;;;9.82;6.20;;;;;;;;;;5093440;28;20111;-64
2023/10/11 00:40:27;;;;;;;9.07;5.63;;;;;;;;;;5093188;28;20039;-64
2023/10/11 00:42:52;;;;;;;11.65;5.22;;;;;;;;;;5080794;28;20028;-64
2023/10/11 00:45:21;;;;;;;9.70;5.50;;;;;;;;;;5093619;28;20123;-63
2023/10/11 00:47:50;;;;;;;13.48;6.00;;;;;;;;;;5092831;28;20278;-64
2023/10/11 00:50:16;;;;;;;12.35;5.90;;;;;;;;;;5092034;28;20050;-64
2023/10/11 00:52:42;;;;;;;10.90;5.70;;;;;;;;;;5093488;28;20033;-64
2023/10/11 00:55:13;;;;;;;14.35;5.63;;;;;;;;;;5093158;28;20319;-64
2023/10/11 00:57:39;;;;;;;10.38;5.25;;;;;;;;;;5093125;28;20032;-64
2023/10/11 01:00:04;;;;;;;9.60;5.20;;;;;;;;;;5093144;28;20405;-64
2023/10/11 01:02:31;;;;;;;9.30;4.93;;;;;;;;;;5093162;28;20025;-64
2023/10/11 01:04:58;;;;;;;8.55;4.72;;;;;;;;;;5092837;28;20024;-64
2023/10/11 01:07:23;;;;;;;11.15;5.72;;;;;;;;;;5081618;28;20021;-64
2023/10/11 01:09:50;;;;;;;13.47;5.43;;;;;;;;;;5090845;28;20020;-70
2023/10/11 01:12:15;;;;;;;11.45;5.35;;;;;;;;;;5091846;28;20273;-63
2023/10/11 01:14:56;;;;;;;11.67;5.67;;;;;;;;;;5092748;28;20459;-63
2023/10/11 01:17:23;;;;;;;9.65;5.55;;;;;;;;;;5093001;28;20373;-64
2023/10/11 01:19:51;;;;;;;10.40;5.35;;;;;;;;;;5092825;28;20420;-63
2023/10/11 01:22:17;;;;;;;9.95;4.97;;;;;;;;;;5092516;28;20498;-64
2023/10/11 01:24:42;;;;;;;9.80;5.60;;;;;;;;;;5087880;28;20037;-63
2023/10/11 01:27:07;;;;;;;14.85;5.75;;;;;;;;;;5084930;28;20042;-64
2023/10/11 01:29:32;;;;;;;11.53;5.40;;;;;;;;;;5092982;28;20020;-63
2023/10/11 01:31:58;;;;;;;8.33;5.30;;;;;;;;;;5092868;28;20277;-64
2023/10/11 01:34:27;;;;;;;11.37;5.23;;;;;;;;;;5080043;28;20759;-64
2023/10/11 01:36:52;;;;;;;10.52;5.30;;;;;;;;;;5092815;28;20285;-64
2023/10/11 01:39:21;;;;;;;12.98;6.22;;;;;;;;;;5088096;28;20032;-64
2023/10/11 01:41:46;;;;;;;15.60;6.47;;;;;;;;;;5084314;28;20470;-63
2023/10/11 01:44:11;;;;;;;14.80;6.55;;;;;;;;;;5092644;28;20023;-63
2023/10/11 01:46:40;;;;;;;14.88;6.45;;;;;;;;;;5092503;28;20036;-64
2023/10/11 01:49:09;;;;;;;13.50;6.28;;;;;;;;;;5092713;28;20023;-63
2023/10/11 01:51:39;;;;;;;10.32;5.93;;;;;;;;;;5090821;28;20023;-64
2023/10/11 01:54:06;;;;;;;9.48;6.00;;;;;;;;;;5091828;28;20040;-63
2023/10/11 01:56:32;;;;;;;12.55;6.57;;;;;;;;;;5091667;28;20434;-63
2023/10/11 01:59:00;;;;;;;12.88;7.20;;;;;;;;;;5092855;28;20039;-63
2023/10/11 02:01:28;;;;;;;12.52;6.35;;;;;;;;;;5092341;28;20028;-63
2023/10/11 02:03:56;;;;;;;10.13;6.03;;;;;;;;;;5092901;28;20100;-63
2023/10/11 02:06:22;;;;;;;14.32;6.80;;;;;;;;;;5091476;28;20107;-63
2023/10/11 02:08:47;;;;;;;13.30;6.28;;;;;;;;;;5092496;28;20461;-63
2023/10/11 02:11:15;;;;;;;10.45;6.15;;;;;;;;;;5091587;28;20030;-65
2023/10/11 02:13:41;;;;;;;17.65;5.78;;;;;;;;;;5087112;28;20078;-65
2023/10/11 02:16:11;;;;;;;10.70;5.65;;;;;;;;;;5085394;28;20025;-65
2023/10/11 02:18:36;;;;;;;12.02;5.82;;;;;;;;;;5086720;28;20482;-65
2023/10/11 02:21:06;;;;;;;10.77;6.10;;;;;;;;;;5091906;28;20101;-65
2023/10/11 02:23:37;;;;;;;10.07;5.72;;;;;;;;;;5079781;28;20020;-65
2023/10/11 02:26:02;;;;;;;12.95;5.90;;;;;;;;;;5092254;28;20383;-65
2023/10/11 02:28:28;;;;;;;16.75;6.10;;;;;;;;;;5091638;28;20034;-65
2023/10/11 02:30:55;;;;;;;11.23;5.40;;;;;;;;;;5091777;28;20136;-65
2023/10/11 02:33:20;;;;;;;9.38;5.65;;;;;;;;;;5087665;28;20282;-65
2023/10/11 02:35:56;;;;;;;7.63;5.15;;;;;;;;;;5092533;28;20469;-65
2023/10/11 02:38:23;;;;;;;11.02;5.88;;;;;;;;;;5091557;28;20035;-65
2023/10/11 02:40:55;;;;;;;15.05;6.15;;;;;;;;;;5092025;28;20098;-65
2023/10/11 02:43:27;;;;;;;13.15;5.10;;;;;;;;;;5091447;28;20039;-65
2023/10/11 02:45:52;;;;;;;10.10;5.65;;;;;;;;;;5090602;28;20028;-64
2023/10/11 02:48:21;;;;;;;9.73;5.88;;;;;;;;;;5089695;28;20047;-64
2023/10/11 02:50:47;;;;;;;10.25;5.65;;;;;;;;;;5088177;28;20028;-63
2023/10/11 02:53:22;;;;;;;12.95;5.60;;;;;;;;;;5092070;28;20031;-63
2023/10/11 02:55:56;;;;;;;11.75;6.22;;;;;;;;;;5077831;28;20040;-63
2023/10/11 02:58:22;;;;;;;10.00;5.55;;;;;;;;;;5091641;28;20052;-64
2023/10/11 03:00:47;;;;;;;8.38;5.28;;;;;;;;;;5091112;28;20454;-64
2023/10/11 03:03:15;;;;;;;8.98;5.40;;;;;;;;;;5091593;28;20024;-64
2023/10/11 03:05:40;;;;;;;12.40;5.50;;;;;;;;;;5090396;28;20066;-64
2023/10/11 03:08:16;;;;;;;9.75;4.95;;;;;;;;;;5091662;28;20031;-63
2023/10/11 03:10:54;;;;;;;11.27;5.18;;;;;;;;;;5090812;28;20031;-64
2023/10/11 03:13:24;;;;;;;10.38;5.35;;;;;;;;;;5091105;28;20020;-64
2023/10/11 03:15:55;;;;;;;11.52;5.70;;;;;;;;;;5090960;28;20085;-64
2023/10/11 03:18:33;;;;;;;10.63;5.07;;;;;;;;;;5091290;28;20342;-64
2023/10/11 03:21:08;;;;;;;10.68;5.38;;;;;;;;;;5091031;28;20040;-64
2023/10/11 03:23:36;;;;;;;10.75;5.03;;;;;;;;;;5090876;28;20016;-64
2023/10/11 03:26:16;;;;;;;7.72;4.78;;;;;;;;;;5091512;28;20355;-64
2023/10/11 03:28:41;;;;;;;9.93;5.55;;;;;;;;;;5079238;28;20024;-64
2023/10/11 03:31:06;;;;;;;10.93;4.50;;;;;;;;;;5091070;28;20505;-64
2023/10/11 03:33:32;;;;;;;13.00;4.93;;;;;;;;;;5091282;28;20311;-64
2023/10/11 03:36:01;;;;;;;12.27;4.97;;;;;;;;;;5077295;28;20279;-64
2023/10/11 03:38:32;;;;;;;11.18;4.53;;;;;;;;;;5091473;28;20030;-65
2023/10/11 03:41:15;;;;;;;8.70;4.75;;;;;;;;;;5090523;28;20024;-65
2023/10/11 03:43:41;;;;;;;15.95;5.10;;;;;;;;;;5082405;28;20028;-64
2023/10/11 03:46:15;;;;;;;11.60;5.38;;;;;;;;;;5090782;28;20024;-65
2023/10/11 03:48:56;;;;;;;13.98;4.88;;;;;;;;;;5090730;28;20028;-65
2023/10/11 03:51:22;;;;;;;8.90;5.00;;;;;;;;;;5090456;28;20027;-65
2023/10/11 03:53:48;;;;;;;7.68;4.32;;;;;;;;;;5090970;28;20031;-64
2023/10/11 03:56:13;;;;;;;8.52;4.50;;;;;;;;;;5090525;28;20024;-64
2023/10/11 03:58:39;;;;;;;8.38;5.00;;;;;;;;;;5090759;28;20024;-64
2023/10/11 04:01:23;;;;;;;10.30;4.50;;;;;;;;;;5090830;28;20566;-64
2023/10/11 04:03:49;;;;;;;11.63;4.32;;;;;;;;;;5090454;28;20670;-64
2023/10/11 04:06:14;;;;;;;12.02;5.85;;;;;;;;;;5090637;28;20059;-64
2023/10/11 04:08:41;;;;;;;9.27;4.18;;;;;;;;;;5090165;28;20016;-64
2023/10/11 04:11:17;;;;;;;12.57;4.82;;;;;;;;;;5090932;28;20107;-64
2023/10/11 04:13:45;;;;;;;7.68;3.92;;;;;;;;;;5090836;28;20032;-65
2023/10/11 04:16:11;;;;;;;8.07;4.55;;;;;;;;;;5094135;28;20038;-65
2023/10/11 04:18:37;;;;;;;16.65;4.82;;;;;;;;;;5079896;28;20036;-65
2023/10/11 04:23:35;;;;;;;11.60;3.97;;;;;;;;;;5094068;28;20024;-65
2023/10/11 04:26:07;;;;;;;8.45;4.28;;;;;;;;;;5093838;28;20596;-65
2023/10/11 04:28:32;;;;;;;9.50;4.20;;;;;;;;;;5093957;28;20012;-65
2023/10/11 04:31:28;;;;;;;11.50;4.43;;;;;;;;;;5093261;28;20043;-65
2023/10/11 04:33:50;;;;;;;10.57;4.70;;;;;;;;;;5090326;28;20265;-65
2023/10/11 04:36:20;;;;;;;7.78;4.15;;;;;;;;;;5093206;28;20024;-65
2023/10/11 04:38:47;;;;;;;6.93;3.90;;;;;;;;;;5092853;28;20035;-65
2023/10/11 04:41:16;;;;;;;8.75;4.55;;;;;;;;;;5093119;28;20024;-65
2023/10/11 04:43:50;;;;;;;8.55;4.35;;;;;;;;;;5093671;28;20047;-64
2023/10/11 04:46:15;;;;;;;10.95;4.93;;;;;;;;;;5093914;28;20035;-64
2023/10/11 04:48:41;;;;;;;8.40;4.65;;;;;;;;;;5093005;28;20017;-65
2023/10/11 04:51:13;;;;;;;6.55;4.00;;;;;;;;;;5093918;28;20020;-64
2023/10/11 04:59:06;;;;;;;8.65;4.60;;;;;;;;;;5093556;28;20039;-64
2023/10/11 05:01:58;;;;;;;10.55;4.70;;;;;;;;;;5092580;28;20016;-64
2023/10/11 05:04:33;;;;;;;8.82;3.97;;;;;;;;;;5089462;28;20032;-64
2023/10/11 05:07:03;;;;;;;9.30;4.13;;;;;;;;;;5093029;28;20028;-64
2023/10/11 05:09:38;;;;;;;10.02;4.40;;;;;;;;;;5074854;28;20536;-64
2023/10/11 05:14:30;;;;;;;12.75;4.57;;;;;;;;;;5093173;28;20039;-64
2023/10/11 05:22:48;;;;;;;9.55;5.38;;;;;;;;;;5093476;28;20096;-63
2023/10/11 05:27:51;;;;;;;12.00;4.63;;;;;;;;;;5093058;28;20059;-64
2023/10/11 05:30:26;;;;;;;8.15;4.20;;;;;;;;;;5092890;28;20031;-64
2023/10/11 05:33:15;;;;;;;8.68;3.88;;;;;;;;;;5088336;28;20382;-64
2023/10/11 05:36:09;;;;;;;12.27;4.70;;;;;;;;;;5082439;28;20047;-64
2023/10/11 05:52:09;;;;;;;13.93;4.40;;;;;;;;;;5088698;28;20086;-64
2023/10/11 05:54:35;;;;;;;11.60;4.10;;;;;;;;;;5092721;28;20024;-64
2023/10/11 05:57:03;;;;;;;7.18;3.85;;;;;;;;;;5074108;28;20278;-64
2023/10/11 05:59:31;;;;;;;8.52;3.90;;;;;;;;;;5083957;28;20024;-64
2023/10/11 06:01:57;;;;;;;8.38;4.07;;;;;;;;;;5091767;28;20039;-64
2023/10/11 06:04:23;;;;;;;10.48;4.28;;;;;;;;;;5092092;28;20050;-64
2023/10/11 06:06:52;;;;;;;6.47;3.75;;;;;;;;;;5092145;28;20035;-64
2023/10/11 06:09:17;;;;;;;8.25;4.20;;;;;;;;;;5092377;28;20028;-64
2023/10/11 06:11:49;;;;;;;8.18;4.18;;;;;;;;;;5088189;28;20024;-64
2023/10/11 06:14:16;;;;;;;10.15;4.40;;;;;;;;;;5092201;28;20020;-64
2023/10/11 06:16:43;;;;;;;9.38;3.58;;;;;;;;;;5088225;28;20055;-64
2023/10/11 06:19:25;;;;;;;8.13;4.25;;;;;;;;;;5092263;28;20035;-64
2023/10/11 06:21:58;;;;;;;12.07;3.70;;;;;;;;;;5083902;28;20030;-65
2023/10/11 06:24:23;;;;;;;9.27;3.42;;;;;;;;;;5089430;28;20493;-64
2023/10/11 06:29:22;;;;;;;7.03;4.13;;;;;;;;;;5085188;28;20047;-64
2023/10/11 06:31:48;;;;;;;9.53;4.47;;;;;;;;;;5092282;28;20031;-64
2023/10/11 06:34:17;;;;;;;10.23;4.55;;;;;;;;;;5091765;28;20078;-64
2023/10/11 06:36:48;;;;;;;13.07;3.75;;;;;;;;;;5091275;28;20024;-64
2023/10/11 06:39:33;;;;;;;12.30;4.32;;;;;;;;;;5091959;28;20031;-64
2023/10/11 06:41:58;;;;;;;8.68;3.70;;;;;;;;;;5091216;28;20036;-64
2023/10/11 06:44:24;;;;;;;8.00;4.00;;;;;;;;;;5091377;28;20031;-64
2023/10/11 06:46:50;;;;;;;9.00;4.35;;;;;;;;;;5090291;28;20290;-64
2023/10/11 06:49:16;;;;;;;8.32;4.45;;;;;;;;;;5090979;28;20047;-64
2023/10/11 06:51:41;;;;;;;13.77;4.10;;;;;;;;;;5086918;28;20464;-65
2023/10/11 06:54:07;;;;;;;6.75;3.72;;;;;;;;;;5083572;28;20058;-65
2023/10/11 06:56:32;;;;;;;8.02;3.90;;;;;;;;;;5090412;28;20039;-65
2023/10/11 06:59:00;;;;;;;11.15;4.00;;;;;;;;;;5091149;28;20078;-65
2023/10/11 07:01:30;;;;;;;6.93;4.07;;;;;;;;;;5091451;28;20027;-65
2023/10/11 07:03:57;;;;;;;9.98;4.45;;;;;;;;;;5086544;28;20074;-65
2023/10/11 07:06:22;;;;;;;8.32;4.75;;;;;;;;;;5084105;28;20036;-65
2023/10/11 07:08:50;;;;;;;8.63;4.72;;;;;;;;;;5090512;28;20107;-65
2023/10/11 07:11:40;;;;;;;9.48;4.68;;;;;;;;;;5089830;28;20028;-65
2023/10/11 07:14:05;;;;;;;7.90;4.60;;;;;;;;;;5089217;28;20377;-64
2023/10/11 07:16:31;;;;;;;9.00;4.55;;;;;;;;;;5083621;28;20115;-65
2023/10/11 07:18:58;;;;;;;8.80;3.92;;;;;;;;;;5067515;28;20024;-65
2023/10/11 07:21:41;;;;;;;7.65;4.78;;;;;;;;;;5089613;28;20106;-64
2023/10/11 07:24:19;;;;;;;9.40;4.50;;;;;;;;;;5090403;28;20451;-65
2023/10/11 07:29:12;;;;;;;8.57;4.38;;;;;;;;;;5085384;28;20040;-64
2023/10/11 07:31:38;;;;;;;11.02;4.80;;;;;;;;;;5084657;28;20039;-64
2023/10/11 07:34:09;;;;;;;7.72;4.50;;;;;;;;;;5087375;28;20540;-65
2023/10/11 07:36:37;;;;;;;9.57;3.95;;;;;;;;;;5050865;28;20961;-65
2023/10/11 07:41:51;;;;;;;10.80;4.78;;;;;;;;;;5047409;28;20040;-64
2023/10/11 07:44:18;;;;;;;15.50;4.32;;;;;;;;;;5053284;28;20056;-64
2023/10/11 07:46:44;;;;;;;8.32;4.40;;;;;;;;;;5089882;28;20056;-64
2023/10/11 07:49:14;;;;;;;9.98;4.18;;;;;;;;;;5087461;28;20035;-64
2023/10/11 07:51:39;;;;;;;10.77;4.22;;;;;;;;;;5094327;28;20103;-65
2023/10/11 07:54:19;;;;;;;7.30;3.80;;;;;;;;;;5093782;28;20158;-64
2023/10/11 07:56:45;;;;;;;8.63;4.22;;;;;;;;;;5094081;28;20039;-64
2023/10/11 07:59:12;;;;;;;7.50;3.72;;;;;;;;;;5094171;28;20024;-64
2023/10/11 08:01:43;;;;;;;6.72;3.80;;;;;;;;;;5094261;28;20020;-64
2023/10/11 08:04:12;;;;;;;10.15;3.88;;;;;;;;;;5094104;28;20036;-64
2023/10/11 08:06:40;;;;;;;9.52;4.85;;;;;;;;;;5093869;28;20028;-64
2023/10/11 08:09:09;;;;;;;10.80;4.55;;;;;;;;;;5094313;28;20108;-65
2023/10/11 08:11:45;;;;;;;9.15;4.30;;;;;;;;;;5094009;28;20387;-64
2023/10/11 08:14:17;;;;;;;10.35;4.70;;;;;;;;;;5094155;28;20016;-64
2023/10/11 08:16:42;;;;;;;7.15;4.20;;;;;;;;;;5086267;28;20486;-65
2023/10/11 08:19:08;;;;;;;8.20;4.20;;;;;;;;;;5094123;28;20043;-64
2023/10/11 08:21:33;;;;;;;8.05;4.63;;;;;;;;;;5093316;28;20016;-64
2023/10/11 08:23:58;;;;;;;12.75;4.78;;;;;;;;;;5090535;28;20031;-64
2023/10/11 08:26:32;;;;;;;9.40;4.68;;;;;;;;;;5093706;28;20111;-64
2023/10/11 08:29:05;;;;;;;9.88;5.10;;;;;;;;;;5090796;28;20059;-64
2023/10/11 08:33:59;;;;;;;10.82;5.75;;;;;;;;;;5093835;28;20031;-64
2023/10/11 08:36:29;;;;;;;7.07;4.63;;;;;;;;;;5093470;28;20375;-64
2023/10/11 08:38:55;;;;;;;11.15;4.85;;;;;;;;;;5094311;28;20039;-64
2023/10/11 08:41:22;;;;;;;8.45;4.20;;;;;;;;;;5093376;28;20027;-64
2023/10/11 08:43:49;;;;;;;8.90;4.55;;;;;;;;;;5093541;28;20024;-64
2023/10/11 08:46:17;;;;;;;7.38;4.45;;;;;;;;;;5093463;28;20028;-64
2023/10/11 08:48:42;;;;;;;9.07;4.65;;;;;;;;;;5093178;28;20390;-64
2023/10/11 08:51:12;;;;;;;9.38;4.50;;;;;;;;;;5093765;28;20031;-64
2023/10/11 08:53:47;;;;;;;12.77;4.70;;;;;;;;;;5080972;28;20166;-64
2023/10/11 08:56:15;;;;;;;10.65;4.43;;;;;;;;;;5092531;28;20031;-65
2023/10/11 08:58:51;;;;;;;6.53;4.10;;;;;;;;;;5073814;28;20827;-65
2023/10/11 09:01:16;;;;;;;8.88;4.63;;;;;;;;;;5030003;28;20032;-64
2023/10/11 09:03:42;;;;;;;10.23;4.75;;;;;;;;;;5028414;28;20097;-65
2023/10/11 09:06:20;;;;;;;10.13;4.50;;;;;;;;;;5045747;28;20056;-64
2023/10/11 09:08:47;;;;;;;11.68;4.72;;;;;;;;;;5071788;28;20765;-64
2023/10/11 09:11:15;;;;;;;10.10;4.30;;;;;;;;;;5093233;28;20057;-64
2023/10/11 09:13:41;;;;;;;8.15;4.05;;;;;;;;;;5087557;28;20039;-65
2023/10/11 09:16:13;;;;;;;7.93;4.65;;;;;;;;;;5092892;28;20036;-65
2023/10/11 09:18:39;;;;;;;10.02;4.10;;;;;;;;;;5091818;28;20103;-64
2023/10/11 09:21:15;;;;;;;6.30;3.88;;;;;;;;;;5093279;28;20178;-64
2023/10/11 09:23:46;;;;;;;6.95;4.50;;;;;;;;;;5082947;28;20020;-64
2023/10/11 09:26:13;;;;;;;8.55;4.45;;;;;;;;;;5092665;28;20389;-64
2023/10/11 09:28:41;;;;;;;9.45;4.57;;;;;;;;;;5093077;28;20032;-64
2023/10/11 09:31:11;;;;;;;8.15;4.13;;;;;;;;;;5093116;28;20100;-64
2023/10/11 09:33:59;;;;;;;9.65;4.15;;;;;;;;;;5092916;28;20028;-64
2023/10/11 09:36:25;;;;;;;9.15;4.47;;;;;;;;;;5092423;28;20391;-65
2023/10/11 09:38:54;;;;;;;19.05;4.57;;;;;;;;;;5092732;28;20028;-64
2023/10/11 09:41:22;;;;;;;8.40;4.32;;;;;;;;;;5092403;28;20016;-64
2023/10/11 09:43:48;;;;;;;9.95;4.40;;;;;;;;;;5092636;28;20044;-64
2023/10/11 09:46:13;;;;;;;10.93;4.30;;;;;;;;;;5092814;28;20210;-64
2023/10/11 09:48:41;;;;;;;7.13;4.35;;;;;;;;;;5092026;28;20269;-64
2023/10/11 09:51:13;;;;;;;7.93;4.40;;;;;;;;;;5092236;28;20467;-65
2023/10/11 09:53:41;;;;;;;8.77;3.90;;;;;;;;;;5092451;28;20020;-64
2023/10/11 09:56:35;;;;;;;10.05;4.57;;;;;;;;;;5092399;28;20025;-65
2023/10/11 09:59:06;;;;;;;6.97;3.97;;;;;;;;;;5049231;28;20497;-64
2023/10/11 10:01:38;;;;;;;13.50;5.53;;;;;;;;;;5090680;28;20107;-65
2023/10/11 10:04:07;;;;;;;6.82;3.97;;;;;;;;;;5084969;28;20086;-65
2023/10/11 10:06:33;;;;;;;10.88;4.05;;;;;;;;;;5092081;28;20501;-65
2023/10/11 10:09:16;;;;;;;10.10;5.05;;;;;;;;;;5092180;28;20024;-64
2023/10/11 10:12:05;;;;;;;7.22;3.97;;;;;;;;;;5080321;28;20039;-65
2023/10/11 10:14:33;;;;;;;10.60;4.90;;;;;;;;;;5091919;28;20471;-65
2023/10/11 10:17:19;;;;;;;11.80;4.55;;;;;;;;;;5091973;28;20404;-65
2023/10/11 10:19:48;;;;;;;10.48;4.43;;;;;;;;;;5082560;28;20047;-64
2023/10/11 10:22:17;;;;;;;8.15;4.25;;;;;;;;;;5090571;28;20099;-65
2023/10/11 10:24:43;;;;;;;7.22;4.05;;;;;;;;;;5073535;28;20029;-64
2023/10/11 10:27:33;;;;;;;7.60;4.25;;;;;;;;;;5092212;28;20024;-65
2023/10/11 10:29:59;;;;;;;12.73;4.53;;;;;;;;;;5091530;28;20036;-64
2023/10/11 10:32:25;;;;;;;8.50;4.55;;;;;;;;;;5091408;28;20465;-64
2023/10/11 10:35:11;;;;;;;11.80;4.25;;;;;;;;;;5091916;28;20112;-64
2023/10/11 10:37:46;;;;;;;10.68;4.78;;;;;;;;;;5089878;28;20035;-64
2023/10/11 10:40:15;;;;;;;10.95;4.55;;;;;;;;;;5072688;28;20058;-64
2023/10/11 10:42:45;;;;;;;8.65;4.47;;;;;;;;;;5083663;28;20037;-64
2023/10/11 10:45:12;;;;;;;11.52;4.40;;;;;;;;;;5087740;28;20359;-64
2023/10/11 10:47:37;;;;;;;9.00;4.22;;;;;;;;;;5091609;28;20020;-64
2023/10/11 10:50:09;;;;;;;12.07;4.43;;;;;;;;;;5089655;28;20039;-63
2023/10/11 10:52:34;;;;;;;8.18;3.97;;;;;;;;;;5087571;28;20778;-64
2023/10/11 10:55:04;;;;;;;10.48;4.55;;;;;;;;;;5089050;28;20016;-64
2023/10/11 10:57:37;;;;;;;9.02;4.80;;;;;;;;;;5090468;28;20026;-68
2023/10/11 11:00:05;;;;;;;8.75;4.05;;;;;;;;;;5088108;28;20040;-64
2023/10/11 11:02:34;;;;;;;11.32;4.75;;;;;;;;;;5091357;28;20047;-63
2023/10/11 11:04:59;;;;;;;11.35;4.93;;;;;;;;;;5077005;28;20532;-64
2023/10/11 11:07:26;;;;;;;8.98;5.05;;;;;;;;;;5081891;28;20062;-64
2023/10/11 11:09:54;;;;;;;12.88;4.25;;;;;;;;;;5089456;28;20028;-64
2023/10/11 11:12:28;;;;;;;10.73;4.63;;;;;;;;;;5089633;28;20032;-64
2023/10/11 11:14:54;;;;;;;10.20;4.40;;;;;;;;;;5085498;28;20020;-66
2023/10/11 11:17:20;;;;;;;12.18;4.43;;;;;;;;;;5039352;28;20063;-65
2023/10/11 11:20:01;;;;;;;12.07;4.40;;;;;;;;;;5044629;28;20032;-64
2023/10/11 11:22:37;;;;;;;12.40;3.90;;;;;;;;;;5037151;28;20036;-64
2023/10/11 11:25:15;;;;;;;11.82;4.78;;;;;;;;;;5047869;28;20035;-64
2023/10/11 11:27:41;;;;;;;12.13;4.38;;;;;;;;;;5047884;28;20158;-64
2023/10/11 11:30:16;;;;;;;9.48;4.18;;;;;;;;;;5050969;28;20073;-64
2023/10/11 11:32:45;;;;;;;14.93;4.53;;;;;;;;;;5044898;28;20032;-65
2023/10/11 11:35:25;;;;;;;14.60;4.28;;;;;;;;;;5048700;28;20039;-65
2023/10/11 11:38:05;;;;;;;8.38;4.80;;;;;;;;;;5033159;28;20889;-65
2023/10/11 11:40:36;;;;;;;12.23;4.13;;;;;;;;;;5041729;28;20028;-65
2023/10/11 11:43:03;;;;;;;9.70;4.10;;;;;;;;;;5045559;28;20033;-64
2023/10/11 11:45:35;;;;;;;7.57;3.97;;;;;;;;;;5042542;28;20899;-64
2023/10/11 11:48:01;;;;;;;9.35;4.05;;;;;;;;;;5051246;28;20038;-64
2023/10/11 11:50:30;;;;;;;8.18;3.97;;;;;;;;;;5092995;28;20032;-64
2023/10/11 11:52:57;;;;;;;7.80;3.90;;;;;;;;;;5093220;28;20470;-65
2023/10/11 11:55:22;;;;;;;9.15;4.13;;;;;;;;;;5079841;28;20056;-64
2023/10/11 11:57:48;;;;;;;11.23;4.00;;;;;;;;;;5093109;28;20367;-64
2023/10/11 12:02:52;;;;;;;9.38;4.55;;;;;;;;;;5092121;28;20046;-65
2023/10/11 12:05:17;;;;;;;7.90;4.35;;;;;;;;;;5092832;28;20159;-64
2023/10/11 12:07:43;;;;;;;7.78;3.92;;;;;;;;;;5092490;28;20108;-65
2023/10/11 12:10:23;;;;;;;9.45;4.10;;;;;;;;;;5092762;28;20032;-65
2023/10/11 12:12:50;;;;;;;10.57;4.25;;;;;;;;;;5091800;28;20068;-65
2023/10/11 12:15:16;;;;;;;14.75;4.47;;;;;;;;;;5092799;28;20471;-65
2023/10/11 12:17:42;;;;;;;9.00;4.05;;;;;;;;;;5090593;28;20016;-62
2023/10/11 12:20:12;;;;;;;9.63;3.90;;;;;;;;;;5092088;28;20123;-65
2023/10/11 12:22:42;;;;;;;12.13;4.60;;;;;;;;;;5086917;28;20082;-65
2023/10/11 12:25:08;;;;;;;8.68;4.05;;;;;;;;;;5091738;28;20498;-64
2023/10/11 12:27:33;;;;;;;8.63;4.20;;;;;;;;;;5092779;28;20032;-64
2023/10/11 12:29:59;;;;;;;11.90;3.87;;;;;;;;;;5092988;28;20024;-64
2023/10/11 12:32:24;;;;;;;9.05;4.18;;;;;;;;;;5092831;28;20020;-64
2023/10/11 12:34:52;;;;;;;11.63;3.93;;;;;;;;;;5091430;28;20026;-64
2023/10/11 12:37:17;;;;;;;17.20;4.55;;;;;;;;;;5092525;28;20696;-64
2023/10/11 12:39:42;;;;;;;12.32;3.92;;;;;;;;;;5089392;28;20051;-64
2023/10/11 12:42:11;;;;;;;8.83;4.13;;;;;;;;;;5092662;28;20081;-64
2023/10/11 12:44:40;;;;;;;8.20;3.95;;;;;;;;;;5080962;28;20028;-64
2023/10/11 12:47:10;;;;;;;7.85;3.88;;;;;;;;;;5086412;28;20115;-64
2023/10/11 12:49:35;;;;;;;9.65;3.95;;;;;;;;;;5092784;28;20040;-64
2023/10/11 12:52:05;;;;;;;9.87;3.83;;;;;;;;;;5092440;28;20105;-64
2023/10/11 12:54:31;;;;;;;11.15;4.00;;;;;;;;;;5091760;28;20296;-64
2023/10/11 12:56:56;;;;;;;9.75;4.05;;;;;;;;;;5092647;28;20598;-65
2023/10/11 12:59:22;;;;;;;6.95;3.95;;;;;;;;;;5081333;28;20486;-64
2023/10/11 13:01:52;;;;;;;13.98;4.07;;;;;;;;;;5085028;28;20024;-64
2023/10/11 13:04:17;;;;;;;9.30;4.20;;;;;;;;;;5085934;28;20106;-64
2023/10/11 13:06:49;;;;;;;9.25;3.47;;;;;;;;;;5092325;28;20103;-64
2023/10/11 13:09:15;;;;;;;12.40;3.67;;;;;;;;;;5092455;28;20024;-65
2023/10/11 13:11:46;;;;;;;6.45;3.28;;;;;;;;;;5091565;28;20031;-64
2023/10/11 13:14:20;;;;;;;8.35;3.67;;;;;;;;;;5091479;28;20051;-65
2023/10/11 13:16:45;;;;;;;;;;;;;;;;;;5092968;28;20027;-64
2023/10/11 13:19:11;;;;;;;9.25;3.63;;;;;;;;;;5091593;28;19965;-65
2023/10/11 13:21:38;;;;;;;8.63;4.50;;;;;;;;;;5092067;28;20114;-65
2023/10/11 13:24:08;;;;;;;8.30;4.00;;;;;;;;;;5086325;28;20115;-64
2023/10/11 13:26:33;;;;;;;6.85;3.03;;;;;;;;;;5078407;28;20082;-64
2023/10/11 13:29:01;;;;;;;10.02;3.95;;;;;;;;;;5091036;28;20028;-64
2023/10/11 13:31:29;;;;;;;11.20;4.00;;;;;;;;;;5085696;28;20024;-64
2023/10/11 13:33:55;;;;;;;6.22;3.45;;;;;;;;;;5072780;28;20109;-66
2023/10/11 13:36:21;;;;;;;6.47;3.05;;;;;;;;;;5085232;28;20470;-64
2023/10/11 13:38:46;;;;;;;11.75;3.63;;;;;;;;;;5086504;28;20028;-64
2023/10/11 13:41:12;;;;;;;6.63;3.70;;;;;;;;;;5092357;28;20020;-64
2023/10/11 13:43:40;;;;;;;10.40;3.30;;;;;;;;;;5092433;28;20362;-63
2023/10/11 13:46:10;;;;;;;10.18;3.70;;;;;;;;;;5091992;28;20374;-63
2023/10/11 13:48:41;;;;;;;10.32;3.90;;;;;;;;;;5090543;28;20085;-64
2023/10/11 13:51:08;;;;;;;8.02;4.03;;;;;;;;;;5092235;28;20036;-64
2023/10/11 13:53:44;;;;;;;10.35;3.90;;;;;;;;;;5090544;28;20027;-65
2023/10/11 13:56:16;;;;;;;12.40;3.92;;;;;;;;;;5091243;28;20119;-64
2023/10/11 13:58:45;;;;;;;9.30;3.92;;;;;;;;;;5091849;28;20024;-64
2023/10/11 14:01:45;;;;;;;13.55;4.30;;;;;;;;;;5090964;28;20024;-67
2023/10/11 14:04:04;;;;;;;8.98;4.25;;;;;;;;;;5090442;28;20513;-64
2023/10/11 14:09:16;;;;;;;14.30;4.35;;;;;;;;;;5091727;28;20055;-64
2023/10/11 14:11:46;;;;;;;10.13;3.67;;;;;;;;;;5090701;28;20051;-65
2023/10/11 14:14:12;;;;;;;7.60;3.20;;;;;;;;;;5085340;28;20028;-64
2023/10/11 14:16:37;;;;;;;11.50;3.92;;;;;;;;;;5091342;28;20126;-64
2023/10/11 14:19:06;;;;;;;13.52;3.63;;;;;;;;;;5091099;28;20032;-63
2023/10/11 14:21:36;;;;;;;8.68;4.15;;;;;;;;;;5091458;28;20020;-64
2023/10/11 14:24:01;;;;;;;8.48;3.53;;;;;;;;;;5090782;28;20084;-65
2023/10/11 14:26:28;;;;;;;12.77;3.87;;;;;;;;;;5090618;28;20603;-64
2023/10/11 14:28:54;;;;;;;8.70;3.63;;;;;;;;;;5090660;28;20792;-64
2023/10/11 14:31:22;;;;;;;6.27;3.60;;;;;;;;;;5091306;28;20106;-64
2023/10/11 14:33:49;;;;;;;7.95;3.92;;;;;;;;;;5086051;28;20016;-64
2023/10/11 14:36:14;;;;;;;8.32;3.33;;;;;;;;;;5090636;28;20036;-64
2023/10/11 14:38:40;;;;;;;7.28;3.58;;;;;;;;;;5090165;28;20020;-65
2023/10/11 14:41:09;;;;;;;6.18;3.30;;;;;;;;;;5090260;28;20559;-65
2023/10/11 14:43:36;;;;;;;9.82;3.88;;;;;;;;;;5090439;28;20028;-64
2023/10/11 14:46:06;;;;;;;8.13;3.40;;;;;;;;;;5080110;28;20115;-64
2023/10/11 14:48:31;;;;;;;6.57;3.47;;;;;;;;;;5084470;28;20020;-63
2023/10/11 14:50:56;;;;;;;11.23;4.00;;;;;;;;;;5082131;28;20024;-64
2023/10/11 14:53:22;;;;;;;5.50;3.23;;;;;;;;;;5089795;28;20099;-65
2023/10/11 14:55:47;;;;;;;5.77;3.37;;;;;;;;;;5090672;28;20266;-64
2023/10/11 14:58:14;;;;;;;6.20;2.75;;;;;;;;;;5089852;28;20024;-64
2023/10/11 15:00:44;;;;;;;4.78;2.97;;;;;;;;;;5091485;28;20026;-64
2023/10/11 15:03:09;;;;;;;8.07;3.05;;;;;;;;;;5089822;28;20095;-64
2023/10/11 15:05:34;;;;;;;7.80;3.37;;;;;;;;;;5089037;28;20119;-64
2023/10/11 15:08:00;;;;;;;7.40;3.97;;;;;;;;;;5089049;28;20083;-65
2023/10/11 15:10:26;;;;;;;8.10;3.47;;;;;;;;;;5090225;28;20111;-64
2023/10/11 15:12:52;;;;;;;8.65;2.95;;;;;;;;;;5090374;28;20035;-63
2023/10/11 15:15:20;;;;;;;10.07;3.30;;;;;;;;;;5090277;28;20020;-63
2023/10/11 15:17:50;;;;;;;7.55;3.25;;;;;;;;;;5086837;28;20027;-63
2023/10/11 15:20:15;;;;;;;6.70;3.25;;;;;;;;;;5079688;28;20031;-64
2023/10/11 15:22:41;;;;;;;8.73;3.05;;;;;;;;;;5090079;28;20114;-64
2023/10/11 15:25:08;;;;;;;7.60;3.10;;;;;;;;;;5083162;28;20383;-64
2023/10/11 15:27:33;;;;;;;7.28;3.78;;;;;;;;;;5082155;28;20543;-64
2023/10/11 15:29:59;;;;;;;9.15;3.10;;;;;;;;;;5090649;28;20024;-63
2023/10/11 15:32:25;;;;;;;7.07;3.28;;;;;;;;;;5090514;28;20103;-64
2023/10/11 15:34:54;;;;;;;6.35;2.88;;;;;;;;;;5090297;28;20158;-64
2023/10/11 15:37:19;;;;;;;5.32;3.00;;;;;;;;;;5091084;28;20486;-64
2023/10/11 15:39:45;;;;;;;6.18;2.92;;;;;;;;;;5090966;28;20028;-65